メインページ
METAR-TAF:

METAR-TAF

空港 :

チャーチル, マニトバ州, カナダ

緯度: 58-44N, 経度: 094-04W, 海抜: 28m

現時点の気象観測

当レポートは1時間11分前の10:00(UTC)に作成
東/南東の風 13kt、最大19ktの突風を伴う
気温 5°C
湿度 87%
気圧 1018 hPa
視程: 24.1km
高度1200ftの曇り

METAR: CYYQ 201000Z 11013G19KT 15SM OVC012 05/03 A3005 RMK SC8 SLP178

時間: 06:11 (11:11 UTC)

予報

当レポートは5時間32分前の05:39(UTC)に作成
予報は20日の 06時(UTC)から 21日の 06時(UTC)まで有効
の風 8kt
視程: 10km
高度2000ftの雲はほとんどない
高度4000ftの雲は散在している
高度27000ftの千切れ雲あり
20日の 06時(UTC)から 20日の 20時(UTC)まで一時的に
高度2000ftの千切れ雲あり
高度4000ftの曇り
20日の 12時(UTC)から 20日の 14時(UTC)まで徐々に
の風 20kt、最大30ktの突風を伴う
20日の 2000時(UTC)から
の風 25kt、最大40ktの突風を伴う
視程: 10km
高度800ftの千切れ雲あり
高度2000ftの曇り
小雨
確率 30%
20日の 23時(UTC)から 21日の 02時(UTC)まで
視程: 3.2km
高度300ftの千切れ雲あり
高度600ftの曇り
小雨, 靄
21日の 0200時(UTC)から
の風 25kt、最大35ktの突風を伴う
視程: 3.2km
高度300ftの千切れ雲あり
高度600ftの曇り
小雨, 靄
21日の 04時(UTC)から 21日の 06時(UTC)まで徐々に
東/南東の風 15kt、最大25ktの突風を伴う

TAF: CYYQ 200539Z 2006/2106 10008KT P6SM FEW020 SCT040 BKN270 TEMPO 2006/2020 BKN020 OVC040 BECMG 2012/2014 09020G30KT FM202000 09025G40KT P6SM -RA BKN008 OVC020 PROB30 2023/2102 2SM -RA BR BKN003 OVC006 FM210200 10025G35KT 2SM -RA BR BKN003 OVC006 BECMG 2104/2106 12015G25KT RMK NXT FCST BY 201200Z

4,000以上の空港の気象観測と天気予報(METAR報とTAF報)

利用可能な観測所は地図上に黄色い丸と赤い丸で示す。

丸の上にカーソルを重ねると観測所名を参照できる。

次にクリックすると気象観測と天気予報を参照できる。

マップの切り替え:黒色「×」印の緑ボタンをクリックして拡大、「-」印の緑ボタンをクリックして縮小、緑色の三角印をクリックして隣りの地図に切り替え


METAR-TAF: